createdAt,value
2017-10-08T00:00:10.190Z,1006.83
2017-10-08T00:00:50.713Z,1006.78
2017-10-08T00:01:31.239Z,1006.78
2017-10-08T00:02:11.777Z,1006.81
2017-10-08T00:02:52.314Z,1006.8
2017-10-08T00:03:32.844Z,1006.73
2017-10-08T00:04:13.364Z,1006.76
2017-10-08T00:04:53.892Z,1006.71
2017-10-08T00:05:34.424Z,1006.7
2017-10-08T00:06:14.951Z,1006.7
2017-10-08T00:06:55.487Z,1006.73
2017-10-08T00:07:36.007Z,1006.75
2017-10-08T00:08:16.537Z,1006.74
2017-10-08T00:08:57.069Z,1006.72
2017-10-08T00:09:37.606Z,1006.73
2017-10-08T00:10:18.159Z,1006.72
2017-10-08T00:10:58.690Z,1006.71
2017-10-08T00:11:39.210Z,1006.73
2017-10-08T00:12:19.733Z,1006.68
2017-10-08T00:13:00.345Z,1006.71
2017-10-08T00:13:40.868Z,1006.71
2017-10-08T00:14:21.413Z,1006.73
2017-10-08T00:15:01.933Z,1006.7
2017-10-08T00:15:42.467Z,1006.76
2017-10-08T00:16:23.003Z,1006.74
2017-10-08T00:17:03.529Z,1006.76
2017-10-08T00:17:44.033Z,1006.76
2017-10-08T00:18:24.566Z,1006.69
2017-10-08T00:19:05.084Z,1006.7
2017-10-08T00:19:45.599Z,1006.75
2017-10-08T00:20:26.138Z,1006.75
2017-10-08T00:21:06.677Z,1006.77
2017-10-08T00:21:47.215Z,1006.73
2017-10-08T00:22:27.785Z,1006.74
2017-10-08T00:23:08.321Z,1006.75
2017-10-08T00:23:48.852Z,1006.72
2017-10-08T00:24:29.385Z,1006.78
2017-10-08T00:25:09.908Z,1006.72
2017-10-08T00:25:50.438Z,1006.78
2017-10-08T00:26:30.955Z,1006.76
2017-10-08T00:27:11.461Z,1006.75
2017-10-08T00:27:51.990Z,1006.76
2017-10-08T00:28:32.480Z,1006.78
2017-10-08T00:29:12.987Z,1006.76
2017-10-08T00:29:53.517Z,1006.75
2017-10-08T00:30:34.053Z,1006.71
2017-10-08T00:31:14.569Z,1006.74
2017-10-08T00:31:55.091Z,1006.79
2017-10-08T00:32:35.633Z,1006.8
2017-10-08T00:33:16.167Z,1006.75
2017-10-08T00:33:56.699Z,1006.79
2017-10-08T00:34:37.232Z,1006.76
2017-10-08T00:35:17.758Z,1006.78
2017-10-08T00:35:58.338Z,1006.72
2017-10-08T00:36:38.866Z,1006.73
2017-10-08T00:37:19.393Z,1006.74
2017-10-08T00:37:59.930Z,1006.76
2017-10-08T00:38:40.459Z,1006.77
2017-10-08T00:39:20.979Z,1006.76
2017-10-08T00:40:01.538Z,1006.76
2017-10-08T00:40:42.076Z,1006.76
2017-10-08T00:41:22.588Z,1006.73
2017-10-08T00:42:03.118Z,1006.76
2017-10-08T00:42:43.637Z,1006.78
2017-10-08T00:43:24.174Z,1006.77
2017-10-08T00:44:04.682Z,1006.76
2017-10-08T00:44:45.211Z,1006.76
2017-10-08T00:45:25.731Z,1006.76
2017-10-08T00:46:06.263Z,1006.77
2017-10-08T00:46:46.788Z,1006.77
2017-10-08T00:47:27.322Z,1006.78
2017-10-08T00:48:07.860Z,1006.75
2017-10-08T00:48:48.394Z,1006.82
2017-10-08T00:49:28.915Z,1006.81
2017-10-08T00:50:09.445Z,1006.84
2017-10-08T00:50:49.980Z,1006.82
2017-10-08T00:51:30.498Z,1006.82
2017-10-08T00:52:11.016Z,1006.85
2017-10-08T00:52:51.553Z,1006.82
2017-10-08T00:53:32.090Z,1006.81
2017-10-08T00:54:12.616Z,1006.88
2017-10-08T00:54:53.120Z,1006.86
2017-10-08T00:55:33.667Z,1006.83
2017-10-08T00:56:14.200Z,1006.87
2017-10-08T00:56:54.722Z,1006.82
2017-10-08T00:57:35.248Z,1006.87
2017-10-08T00:58:15.773Z,1006.92
2017-10-08T00:58:56.297Z,1006.91
2017-10-08T00:59:36.860Z,1006.94
2017-10-08T01:00:17.402Z,1006.92
2017-10-08T01:00:57.938Z,1006.9
2017-10-08T01:01:38.485Z,1006.93
2017-10-08T01:02:19.002Z,1006.93
2017-10-08T01:02:59.529Z,1006.96
2017-10-08T01:03:40.058Z,1006.94
2017-10-08T01:04:20.575Z,1006.92
2017-10-08T01:05:01.108Z,1006.93
2017-10-08T01:05:41.638Z,1006.93
2017-10-08T01:06:22.178Z,1006.93
2017-10-08T01:07:02.689Z,1006.96
2017-10-08T01:07:43.231Z,1006.95
2017-10-08T01:08:23.753Z,1006.9
2017-10-08T01:09:04.276Z,1006.96
2017-10-08T01:09:44.811Z,1007
2017-10-08T01:10:25.346Z,1006.98
2017-10-08T01:11:05.861Z,1007
2017-10-08T01:11:46.378Z,1007
2017-10-08T01:12:26.900Z,1006.95
2017-10-08T01:13:07.428Z,1006.98
2017-10-08T01:13:47.951Z,1006.98
2017-10-08T01:14:28.465Z,1006.95
2017-10-08T01:15:08.999Z,1006.98
2017-10-08T01:15:49.519Z,1006.99
2017-10-08T01:16:30.043Z,1007.02
2017-10-08T01:17:10.580Z,1006.98
2017-10-08T01:17:51.112Z,1006.99
2017-10-08T01:18:31.644Z,1007
2017-10-08T01:19:12.181Z,1007.01
2017-10-08T01:19:52.700Z,1007.04
2017-10-08T01:20:33.211Z,1007.03
2017-10-08T01:21:13.748Z,1006.99
2017-10-08T01:21:54.253Z,1007.02
2017-10-08T01:22:34.768Z,1007.01
2017-10-08T01:23:15.295Z,1007.01
2017-10-08T01:23:55.812Z,1007.01
2017-10-08T01:24:36.415Z,1006.99
2017-10-08T01:25:16.952Z,1006.98
2017-10-08T01:25:57.481Z,1006.97
2017-10-08T01:26:38.010Z,1007.02
2017-10-08T01:27:18.537Z,1006.99
2017-10-08T01:27:59.056Z,1007.01
2017-10-08T01:28:39.586Z,1007
2017-10-08T01:29:20.112Z,1007
2017-10-08T01:30:00.659Z,1007.04
2017-10-08T01:30:41.165Z,1007
2017-10-08T01:31:21.705Z,1007
2017-10-08T01:32:02.244Z,1006.99
2017-10-08T01:32:42.777Z,1006.96
2017-10-08T01:33:23.294Z,1006.98
2017-10-08T01:34:03.824Z,1006.97
2017-10-08T01:34:44.348Z,1006.95
2017-10-08T01:35:24.871Z,1006.95
2017-10-08T01:36:05.391Z,1006.99
2017-10-08T01:36:45.922Z,1006.95
2017-10-08T01:37:26.457Z,1006.97
2017-10-08T01:38:06.971Z,1006.96
2017-10-08T01:38:47.499Z,1006.94
2017-10-08T01:39:28.064Z,1007.01
2017-10-08T01:40:08.584Z,1007
2017-10-08T01:40:49.124Z,1007.01
2017-10-08T01:41:29.658Z,1007.07
2017-10-08T01:42:10.187Z,1007.04
2017-10-08T01:42:50.715Z,1007.02
2017-10-08T01:43:31.228Z,1007.02
2017-10-08T01:44:11.762Z,1007.05
2017-10-08T01:44:52.301Z,1007.03
2017-10-08T01:45:32.827Z,1007.07
2017-10-08T01:46:13.367Z,1007.03
2017-10-08T01:46:53.898Z,1007.04
2017-10-08T01:47:34.425Z,1007.05
2017-10-08T01:48:14.922Z,1007.08
2017-10-08T01:48:55.450Z,1007.12
2017-10-08T01:49:35.958Z,1007.14
2017-10-08T01:50:16.481Z,1007.14
2017-10-08T01:50:56.993Z,1007.08
2017-10-08T01:51:37.525Z,1007.1
2017-10-08T01:52:18.101Z,1007.06
2017-10-08T01:52:58.612Z,1007.11
2017-10-08T01:53:39.144Z,1007.11
2017-10-08T01:54:19.677Z,1007.11
2017-10-08T01:55:00.204Z,1007.08
2017-10-08T01:55:40.737Z,1007.03
2017-10-08T01:56:21.280Z,1007.03
2017-10-08T01:57:01.802Z,1007.1
2017-10-08T01:57:42.323Z,1007.1
2017-10-08T01:58:22.863Z,1007.04
2017-10-08T01:59:03.384Z,1007.1
2017-10-08T01:59:43.923Z,1007.11
2017-10-08T02:00:24.457Z,1007.11
2017-10-08T02:01:04.962Z,1007.12
2017-10-08T02:01:45.487Z,1007.07
2017-10-08T02:02:26.019Z,1007.06
2017-10-08T02:03:06.545Z,1007.11
2017-10-08T02:03:47.080Z,1007.06
2017-10-08T02:04:27.624Z,1007.04
2017-10-08T02:05:08.146Z,1007.05
2017-10-08T02:05:48.665Z,1007.09
2017-10-08T02:06:29.201Z,1007.05
2017-10-08T02:07:09.717Z,1007.05
2017-10-08T02:07:50.255Z,1007.06
2017-10-08T02:08:30.768Z,1007.07
2017-10-08T02:09:11.282Z,1007.08
2017-10-08T02:09:51.820Z,1007.13
2017-10-08T02:10:32.343Z,1007.12
2017-10-08T02:11:12.866Z,1007.13
2017-10-08T02:11:53.385Z,1007.15
2017-10-08T02:12:33.914Z,1007.16
2017-10-08T02:13:14.442Z,1007.2
2017-10-08T02:13:54.976Z,1007.2
2017-10-08T02:14:35.512Z,1007.21
2017-10-08T02:15:16.036Z,1007.14
2017-10-08T02:15:56.564Z,1007.2
2017-10-08T02:16:37.103Z,1007.21
2017-10-08T02:17:17.644Z,1007.22
2017-10-08T02:17:58.179Z,1007.25
2017-10-08T02:18:38.717Z,1007.25
2017-10-08T02:19:19.244Z,1007.23
2017-10-08T02:19:59.764Z,1007.27
2017-10-08T02:20:40.274Z,1007.24
2017-10-08T02:21:20.787Z,1007.26
2017-10-08T02:22:01.306Z,1007.27
2017-10-08T02:22:41.830Z,1007.25
2017-10-08T02:23:22.342Z,1007.26
2017-10-08T02:24:02.866Z,1007.27
2017-10-08T02:24:43.415Z,1007.3
2017-10-08T02:25:23.940Z,1007.29
2017-10-08T02:26:04.487Z,1007.29
2017-10-08T02:26:44.995Z,1007.35
2017-10-08T02:27:25.520Z,1007.33
2017-10-08T02:28:06.050Z,1007.39
2017-10-08T02:28:46.600Z,1007.4
2017-10-08T02:29:27.115Z,1007.33
2017-10-08T02:30:07.641Z,1007.4
2017-10-08T02:30:48.187Z,1007.42
2017-10-08T02:31:28.712Z,1007.44
2017-10-08T02:32:09.222Z,1007.43
2017-10-08T02:32:49.745Z,1007.47
2017-10-08T02:33:30.282Z,1007.44
2017-10-08T02:34:10.804Z,1007.46
2017-10-08T02:34:51.338Z,1007.44
2017-10-08T02:35:31.860Z,1007.42
2017-10-08T02:36:12.397Z,1007.49
2017-10-08T02:36:52.909Z,1007.42
2017-10-08T02:37:33.429Z,1007.44
2017-10-08T02:38:13.959Z,1007.43
2017-10-08T02:38:54.485Z,1007.46
2017-10-08T02:39:35.027Z,1007.41
2017-10-08T02:40:15.541Z,1007.43
2017-10-08T02:40:56.051Z,1007.44
2017-10-08T02:41:36.594Z,1007.47
2017-10-08T02:42:17.119Z,1007.43
2017-10-08T02:42:57.656Z,1007.47
2017-10-08T02:43:38.193Z,1007.43
2017-10-08T02:44:18.722Z,1007.4
2017-10-08T02:44:59.234Z,1007.43
2017-10-08T02:45:39.767Z,1007.45
2017-10-08T02:46:20.285Z,1007.44
2017-10-08T02:47:00.801Z,1007.39
2017-10-08T02:47:41.328Z,1007.48
2017-10-08T02:48:21.849Z,1007.42
2017-10-08T02:49:02.373Z,1007.41
2017-10-08T02:49:42.906Z,1007.45
2017-10-08T02:50:23.421Z,1007.45
2017-10-08T02:51:03.935Z,1007.41
2017-10-08T02:51:44.460Z,1007.43
2017-10-08T02:52:24.982Z,1007.39
2017-10-08T02:53:05.511Z,1007.43
2017-10-08T02:53:46.031Z,1007.42
2017-10-08T02:54:26.568Z,1007.45
2017-10-08T02:55:07.096Z,1007.44
2017-10-08T02:55:47.634Z,1007.45
2017-10-08T02:56:28.153Z,1007.45
2017-10-08T02:57:08.695Z,1007.52
2017-10-08T02:57:49.215Z,1007.49
2017-10-08T02:58:29.735Z,1007.48
2017-10-08T02:59:10.275Z,1007.51
2017-10-08T02:59:50.812Z,1007.55
2017-10-08T03:00:31.350Z,1007.55
2017-10-08T03:01:11.859Z,1007.55
2017-10-08T03:01:52.397Z,1007.59
2017-10-08T03:02:32.916Z,1007.57
2017-10-08T03:03:13.443Z,1007.57
2017-10-08T03:03:53.969Z,1007.62
2017-10-08T03:04:34.502Z,1007.6
2017-10-08T03:05:15.045Z,1007.56
2017-10-08T03:05:55.566Z,1007.61
2017-10-08T03:06:36.110Z,1007.65
2017-10-08T03:07:16.636Z,1007.62
2017-10-08T03:07:57.151Z,1007.63
2017-10-08T03:08:37.687Z,1007.67
2017-10-08T03:09:18.225Z,1007.69
2017-10-08T03:09:58.761Z,1007.66
2017-10-08T03:10:39.281Z,1007.67
2017-10-08T03:11:19.799Z,1007.65
2017-10-08T03:12:00.325Z,1007.69
2017-10-08T03:12:40.855Z,1007.72
2017-10-08T03:13:21.389Z,1007.66
2017-10-08T03:14:01.909Z,1007.69
2017-10-08T03:14:42.442Z,1007.71
2017-10-08T03:15:22.968Z,1007.73
2017-10-08T03:16:03.510Z,1007.7
2017-10-08T03:16:44.037Z,1007.76
2017-10-08T03:17:24.555Z,1007.76
2017-10-08T03:18:05.069Z,1007.73
2017-10-08T03:18:45.567Z,1007.76
2017-10-08T03:19:26.087Z,1007.74
2017-10-08T03:20:06.616Z,1007.75
2017-10-08T03:20:47.152Z,1007.72
2017-10-08T03:21:27.688Z,1007.75
2017-10-08T03:22:08.225Z,1007.75
2017-10-08T03:22:48.745Z,1007.74
2017-10-08T03:23:29.275Z,1007.74
2017-10-08T03:24:09.801Z,1007.75
2017-10-08T03:24:50.319Z,1007.8
2017-10-08T03:25:30.837Z,1007.76
2017-10-08T03:26:11.356Z,1007.75
2017-10-08T03:26:51.887Z,1007.79
2017-10-08T03:27:32.415Z,1007.76
2017-10-08T03:28:12.951Z,1007.74
2017-10-08T03:28:53.475Z,1007.77
2017-10-08T03:29:34.013Z,1007.8
2017-10-08T03:30:14.517Z,1007.8
2017-10-08T03:30:55.034Z,1007.77
2017-10-08T03:31:35.571Z,1007.81
2017-10-08T03:32:16.109Z,1007.85
2017-10-08T03:32:56.618Z,1007.83
2017-10-08T03:33:37.153Z,1007.82
2017-10-08T03:34:17.673Z,1007.87
2017-10-08T03:34:58.210Z,1007.87
2017-10-08T03:35:38.744Z,1007.88
2017-10-08T03:36:19.274Z,1007.91
2017-10-08T03:36:59.814Z,1007.9
2017-10-08T03:37:40.330Z,1007.92
2017-10-08T03:38:20.869Z,1007.91
2017-10-08T03:39:01.410Z,1007.93
2017-10-08T03:39:41.941Z,1007.91
2017-10-08T03:40:22.481Z,1007.94
2017-10-08T03:41:03.006Z,1007.9
2017-10-08T03:41:43.529Z,1007.97
2017-10-08T03:42:24.063Z,1007.94
2017-10-08T03:43:04.605Z,1007.95
2017-10-08T03:43:45.109Z,1007.97
2017-10-08T03:44:25.634Z,1007.97
2017-10-08T03:45:06.177Z,1007.96
2017-10-08T03:45:46.687Z,1007.99
2017-10-08T03:46:27.208Z,1007.97
2017-10-08T03:47:07.742Z,1007.98
2017-10-08T03:47:48.278Z,1007.99
2017-10-08T03:48:28.806Z,1007.98
2017-10-08T03:49:09.319Z,1007.98
2017-10-08T03:49:49.830Z,1007.98
2017-10-08T03:50:30.356Z,1007.98
2017-10-08T03:51:10.873Z,1007.98
2017-10-08T03:51:51.409Z,1008.02
2017-10-08T03:52:31.938Z,1008.02
2017-10-08T03:53:12.479Z,1008.04
2017-10-08T03:53:53.003Z,1008.05
2017-10-08T03:54:33.518Z,1008.04
2017-10-08T03:55:14.013Z,1008.04
2017-10-08T03:55:54.535Z,1008.02
2017-10-08T03:56:35.064Z,1008.05
2017-10-08T03:57:15.591Z,1008.08
2017-10-08T03:57:56.087Z,1008.06
2017-10-08T03:58:36.604Z,1008.07
2017-10-08T03:59:17.147Z,1008.08
2017-10-08T03:59:57.688Z,1008.08
2017-10-08T04:00:38.196Z,1008.08
2017-10-08T04:01:18.754Z,1008.11
2017-10-08T04:01:59.277Z,1008.13
2017-10-08T04:02:39.773Z,1008.1
2017-10-08T04:03:20.504Z,1008.11
2017-10-08T04:04:01.005Z,1008.11
2017-10-08T04:04:41.532Z,1008.12
2017-10-08T04:05:22.026Z,1008.11
2017-10-08T04:06:02.533Z,1008.13
2017-10-08T04:06:43.055Z,1008.18
2017-10-08T04:07:23.568Z,1008.14
2017-10-08T04:08:04.074Z,1008.14
2017-10-08T04:08:44.590Z,1008.14
2017-10-08T04:09:25.110Z,1008.15
2017-10-08T04:10:05.645Z,1008.16
2017-10-08T04:10:46.167Z,1008.15
2017-10-08T04:11:26.713Z,1008.19
2017-10-08T04:12:07.244Z,1008.2
2017-10-08T04:12:47.839Z,1008.17
2017-10-08T04:13:28.377Z,1008.19
2017-10-08T04:14:08.905Z,1008.21
2017-10-08T04:14:49.428Z,1008.18
2017-10-08T04:15:29.956Z,1008.22
2017-10-08T04:16:10.491Z,1008.22
2017-10-08T04:16:51.016Z,1008.22
2017-10-08T04:17:31.540Z,1008.24
2017-10-08T04:18:12.068Z,1008.17
2017-10-08T04:18:52.603Z,1008.2
2017-10-08T04:19:33.135Z,1008.24
2017-10-08T04:20:13.693Z,1008.19
2017-10-08T04:20:54.223Z,1008.2
2017-10-08T04:21:34.732Z,1008.23
2017-10-08T04:22:15.256Z,1008.23
2017-10-08T04:22:55.807Z,1008.2
2017-10-08T04:23:36.323Z,1008.25
2017-10-08T04:24:16.836Z,1008.28
2017-10-08T04:24:57.349Z,1008.28
2017-10-08T04:25:37.865Z,1008.29
2017-10-08T04:26:18.378Z,1008.35
2017-10-08T04:26:58.911Z,1008.31
2017-10-08T04:27:39.431Z,1008.31
2017-10-08T04:28:19.957Z,1008.3
2017-10-08T04:29:00.485Z,1008.33
2017-10-08T04:29:41.017Z,1008.3
2017-10-08T04:30:21.545Z,1008.3
2017-10-08T04:31:02.090Z,1008.33
2017-10-08T04:31:42.619Z,1008.34
2017-10-08T04:32:23.171Z,1008.29
2017-10-08T04:33:03.686Z,1008.32
2017-10-08T04:33:44.220Z,1008.36
2017-10-08T04:34:24.766Z,1008.31
2017-10-08T04:35:05.310Z,1008.31
2017-10-08T04:35:45.920Z,1008.36
2017-10-08T04:36:26.439Z,1008.38
2017-10-08T04:37:06.970Z,1008.38
2017-10-08T04:37:47.501Z,1008.38
2017-10-08T04:38:28.027Z,1008.41
2017-10-08T04:39:08.539Z,1008.42
2017-10-08T04:39:49.068Z,1008.41
2017-10-08T04:40:29.610Z,1008.4
2017-10-08T04:41:10.151Z,1008.4
2017-10-08T04:41:50.685Z,1008.42
2017-10-08T04:42:31.206Z,1008.41
2017-10-08T04:43:11.715Z,1008.44
2017-10-08T04:43:52.248Z,1008.4
2017-10-08T04:44:32.772Z,1008.38
2017-10-08T04:45:13.301Z,1008.4
2017-10-08T04:45:53.835Z,1008.41
2017-10-08T04:46:34.376Z,1008.39
2017-10-08T04:47:14.893Z,1008.41
2017-10-08T04:47:55.393Z,1008.41
2017-10-08T04:48:35.924Z,1008.4
2017-10-08T04:49:16.495Z,1008.43
2017-10-08T04:49:57.050Z,1008.45
2017-10-08T04:50:37.575Z,1008.45
2017-10-08T04:51:18.104Z,1008.5
2017-10-08T04:51:58.630Z,1008.47
2017-10-08T04:52:39.173Z,1008.48
2017-10-08T04:53:19.699Z,1008.45
2017-10-08T04:54:00.227Z,1008.45
2017-10-08T04:54:40.749Z,1008.5
2017-10-08T04:55:21.292Z,1008.5
2017-10-08T04:56:01.801Z,1008.51
2017-10-08T04:56:42.322Z,1008.48
2017-10-08T04:57:22.863Z,1008.44
2017-10-08T04:58:03.381Z,1008.46
2017-10-08T04:58:43.947Z,1008.46
2017-10-08T04:59:24.501Z,1008.54
2017-10-08T05:00:05.042Z,1008.49
2017-10-08T05:00:45.568Z,1008.52
2017-10-08T05:01:26.094Z,1008.52
2017-10-08T05:02:06.631Z,1008.53
2017-10-08T05:02:47.156Z,1008.53
2017-10-08T05:03:27.686Z,1008.56
2017-10-08T05:04:08.207Z,1008.52
2017-10-08T05:04:48.781Z,1008.55
2017-10-08T05:05:29.293Z,1008.54
2017-10-08T05:06:09.850Z,1008.51
2017-10-08T05:06:50.361Z,1008.56
2017-10-08T05:07:30.908Z,1008.54
2017-10-08T05:08:11.429Z,1008.55
2017-10-08T05:08:51.952Z,1008.53
2017-10-08T05:09:32.491Z,1008.6
2017-10-08T05:10:13.016Z,1008.58
2017-10-08T05:10:53.547Z,1008.57
2017-10-08T05:11:34.062Z,1008.55
2017-10-08T05:12:14.584Z,1008.58
2017-10-08T05:12:55.108Z,1008.58
2017-10-08T05:13:35.631Z,1008.61
2017-10-08T05:14:16.167Z,1008.61
2017-10-08T05:14:56.686Z,1008.59
2017-10-08T05:15:37.215Z,1008.57
2017-10-08T05:16:17.752Z,1008.61
2017-10-08T05:16:58.290Z,1008.61
2017-10-08T05:17:38.817Z,1008.59
2017-10-08T05:18:19.353Z,1008.63
2017-10-08T05:18:59.930Z,1008.63
2017-10-08T05:19:40.457Z,1008.62
2017-10-08T05:20:20.993Z,1008.66
2017-10-08T05:21:01.532Z,1008.65
2017-10-08T05:21:42.064Z,1008.62
2017-10-08T05:22:22.585Z,1008.61
2017-10-08T05:23:03.110Z,1008.65
2017-10-08T05:23:43.637Z,1008.67
2017-10-08T05:24:24.381Z,1008.65
2017-10-08T05:25:04.890Z,1008.7
2017-10-08T05:25:45.425Z,1008.67
2017-10-08T05:26:25.983Z,1008.67
2017-10-08T05:27:06.536Z,1008.68
2017-10-08T05:27:47.059Z,1008.68
2017-10-08T05:28:27.622Z,1008.69
2017-10-08T05:29:08.137Z,1008.7
2017-10-08T05:29:48.651Z,1008.68
2017-10-08T05:30:29.192Z,1008.71
2017-10-08T05:31:09.707Z,1008.7
2017-10-08T05:31:50.246Z,1008.71
2017-10-08T05:32:30.780Z,1008.71
2017-10-08T05:33:11.314Z,1008.68
2017-10-08T05:33:51.830Z,1008.73
2017-10-08T05:34:32.486Z,1008.69
2017-10-08T05:35:13.042Z,1008.69
2017-10-08T05:35:53.569Z,1008.7
2017-10-08T05:36:34.102Z,1008.68
2017-10-08T05:37:14.641Z,1008.72
2017-10-08T05:37:55.160Z,1008.72
2017-10-08T05:38:35.657Z,1008.73
2017-10-08T05:39:16.206Z,1008.74
2017-10-08T05:39:58.610Z,1008.77
2017-10-08T05:40:39.266Z,1008.77
2017-10-08T05:41:19.785Z,1008.77
2017-10-08T05:42:00.308Z,1008.76
2017-10-08T05:42:40.843Z,1008.78
2017-10-08T05:43:21.358Z,1008.8
2017-10-08T05:44:01.876Z,1008.81
2017-10-08T05:44:42.458Z,1008.83
2017-10-08T05:45:23.128Z,1008.8
2017-10-08T05:46:03.622Z,1008.8
2017-10-08T05:46:44.134Z,1008.82
2017-10-08T05:47:24.673Z,1008.84
2017-10-08T05:48:05.193Z,1008.82
2017-10-08T05:48:45.701Z,1008.85
2017-10-08T05:49:26.230Z,1008.83
2017-10-08T05:50:06.774Z,1008.87
2017-10-08T05:50:47.309Z,1008.85
2017-10-08T05:51:27.825Z,1008.83
2017-10-08T05:52:08.359Z,1008.84
2017-10-08T05:52:48.881Z,1008.86
2017-10-08T05:53:29.398Z,1008.82
2017-10-08T05:54:09.915Z,1008.89
2017-10-08T05:54:50.579Z,1008.87
2017-10-08T05:55:31.159Z,1008.85
2017-10-08T05:56:11.649Z,1008.88
2017-10-08T05:56:52.178Z,1008.9
2017-10-08T05:57:32.713Z,1008.91
2017-10-08T05:58:13.250Z,1008.92
2017-10-08T05:58:53.772Z,1008.95
2017-10-08T05:59:34.278Z,1008.92
2017-10-08T06:00:14.784Z,1008.95
2017-10-08T06:00:55.326Z,1008.97
2017-10-08T06:01:35.842Z,1008.96
2017-10-08T06:02:16.420Z,1008.97
2017-10-08T06:02:56.952Z,1009
2017-10-08T06:03:37.473Z,1009
2017-10-08T06:04:18.000Z,1008.99
2017-10-08T06:04:58.493Z,1009
2017-10-08T06:05:39.033Z,1009
2017-10-08T06:06:19.568Z,1009.01
2017-10-08T06:07:00.075Z,1009.02
2017-10-08T06:07:40.620Z,1008.98
2017-10-08T06:08:21.130Z,1009.06
2017-10-08T06:09:01.651Z,1009.03
2017-10-08T06:09:42.173Z,1009.03
2017-10-08T06:10:22.707Z,1009.06
2017-10-08T06:11:03.263Z,1009.06
2017-10-08T06:11:43.776Z,1009.07
2017-10-08T06:12:24.338Z,1009.06
2017-10-08T06:13:05.390Z,1009.09
2017-10-08T06:13:45.936Z,1009.12
2017-10-08T06:14:26.478Z,1009.09
2017-10-08T06:15:07.007Z,1009.13
2017-10-08T06:15:47.534Z,1009.11
2017-10-08T06:16:28.083Z,1009.11
2017-10-08T06:17:08.708Z,1009.12
2017-10-08T06:17:49.188Z,1009.12
2017-10-08T06:18:29.792Z,1009.1
2017-10-08T06:19:10.328Z,1009.1
2017-10-08T06:19:50.848Z,1009.14
2017-10-08T06:20:31.371Z,1009.15
2017-10-08T06:21:11.907Z,1009.16
2017-10-08T06:21:52.490Z,1009.17
2017-10-08T06:22:33.012Z,1009.16
2017-10-08T06:23:13.541Z,1009.16
2017-10-08T06:23:54.044Z,1009.18
2017-10-08T06:24:34.634Z,1009.19
2017-10-08T06:25:15.388Z,1009.23
2017-10-08T06:25:55.909Z,1009.18
2017-10-08T06:26:36.449Z,1009.18
2017-10-08T06:27:16.984Z,1009.22
2017-10-08T06:27:57.642Z,1009.23
2017-10-08T06:28:38.176Z,1009.21
2017-10-08T06:29:18.712Z,1009.2
2017-10-08T06:29:59.401Z,1009.18
2017-10-08T06:30:39.928Z,1009.17
2017-10-08T06:31:20.428Z,1009.22
2017-10-08T06:32:01.237Z,1009.17
2017-10-08T06:32:41.778Z,1009.22
2017-10-08T06:33:22.313Z,1009.23
2017-10-08T06:34:02.835Z,1009.27
2017-10-08T06:34:43.494Z,1009.25
2017-10-08T06:35:24.055Z,1009.2
2017-10-08T06:36:04.568Z,1009.26
2017-10-08T06:36:45.100Z,1009.24
2017-10-08T06:37:25.681Z,1009.23
2017-10-08T06:38:06.499Z,1009.23
2017-10-08T06:38:47.035Z,1009.22
2017-10-08T06:39:27.777Z,1009.23
2017-10-08T06:40:08.360Z,1009.23
2017-10-08T06:40:48.905Z,1009.26
2017-10-08T06:41:29.439Z,1009.28
2017-10-08T06:42:10.084Z,1009.32
2017-10-08T06:42:50.608Z,1009.29
2017-10-08T06:43:31.238Z,1009.33
2017-10-08T06:44:11.743Z,1009.38
2017-10-08T06:44:52.313Z,1009.35
2017-10-08T06:45:32.855Z,1009.37
2017-10-08T06:46:13.377Z,1009.34
2017-10-08T06:46:53.913Z,1009.35
2017-10-08T06:47:34.430Z,1009.35
2017-10-08T06:48:14.965Z,1009.38
2017-10-08T06:48:55.519Z,1009.4
2017-10-08T06:49:36.051Z,1009.38
2017-10-08T06:50:16.586Z,1009.4
2017-10-08T06:50:57.115Z,1009.34
2017-10-08T06:51:37.773Z,1009.37
2017-10-08T06:52:18.276Z,1009.37
2017-10-08T06:52:59.169Z,1009.37
2017-10-08T06:53:39.813Z,1009.36
2017-10-08T06:54:20.337Z,1009.35
2017-10-08T06:55:00.929Z,1009.38
2017-10-08T06:55:41.471Z,1009.38
2017-10-08T06:56:21.991Z,1009.41
2017-10-08T06:57:02.527Z,1009.42
2017-10-08T06:57:43.049Z,1009.37
2017-10-08T06:58:23.831Z,1009.38
2017-10-08T06:59:04.426Z,1009.4
2017-10-08T06:59:44.947Z,1009.38
2017-10-08T07:00:25.490Z,1009.39
2017-10-08T07:01:06.018Z,1009.43
2017-10-08T07:01:46.532Z,1009.41
2017-10-08T07:02:27.007Z,1009.41
2017-10-08T07:03:07.551Z,1009.45
2017-10-08T07:03:48.050Z,1009.41
2017-10-08T07:04:28.576Z,1009.37
2017-10-08T07:05:09.101Z,1009.4
2017-10-08T07:05:49.621Z,1009.39
2017-10-08T07:06:30.201Z,1009.4
2017-10-08T07:07:10.780Z,1009.38
2017-10-08T07:07:51.297Z,1009.42
2017-10-08T07:08:31.859Z,1009.42
2017-10-08T07:09:12.470Z,1009.46
2017-10-08T07:09:53.012Z,1009.46
2017-10-08T07:10:33.545Z,1009.45
2017-10-08T07:11:14.084Z,1009.42
2017-10-08T07:11:54.591Z,1009.44
2017-10-08T07:12:35.112Z,1009.44
2017-10-08T07:13:15.663Z,1009.43
2017-10-08T07:13:56.235Z,1009.45
2017-10-08T07:14:36.814Z,1009.47
2017-10-08T07:15:17.337Z,1009.49
2017-10-08T07:15:57.868Z,1009.45
2017-10-08T07:16:38.389Z,1009.48
2017-10-08T07:17:18.898Z,1009.47
2017-10-08T07:17:59.424Z,1009.48
2017-10-08T07:18:39.966Z,1009.46
2017-10-08T07:19:20.485Z,1009.48
2017-10-08T07:20:01.006Z,1009.42
2017-10-08T07:20:41.523Z,1009.45
2017-10-08T07:21:22.068Z,1009.47
2017-10-08T07:22:02.594Z,1009.52
2017-10-08T07:22:43.125Z,1009.52
2017-10-08T07:23:23.641Z,1009.51
2017-10-08T07:24:04.166Z,1009.51
2017-10-08T07:24:44.697Z,1009.51
2017-10-08T07:25:25.201Z,1009.53
2017-10-08T07:26:05.713Z,1009.53
2017-10-08T07:26:46.247Z,1009.58
2017-10-08T07:27:26.778Z,1009.57
2017-10-08T07:28:07.299Z,1009.58
2017-10-08T07:28:47.825Z,1009.59
2017-10-08T07:29:28.335Z,1009.58
2017-10-08T07:30:08.874Z,1009.54
2017-10-08T07:30:49.504Z,1009.6
2017-10-08T07:31:30.080Z,1009.61
2017-10-08T07:32:10.593Z,1009.6
2017-10-08T07:32:51.126Z,1009.6
2017-10-08T07:33:31.662Z,1009.64
2017-10-08T07:34:12.206Z,1009.63
2017-10-08T07:34:52.911Z,1009.61
2017-10-08T07:35:33.442Z,1009.57
2017-10-08T07:36:13.969Z,1009.61
2017-10-08T07:36:54.519Z,1009.64
2017-10-08T07:37:35.155Z,1009.67
2017-10-08T07:38:15.669Z,1009.67
2017-10-08T07:38:56.182Z,1009.68
2017-10-08T07:39:36.705Z,1009.66
2017-10-08T07:40:17.228Z,1009.68
2017-10-08T07:40:57.744Z,1009.7
2017-10-08T07:41:38.273Z,1009.69
2017-10-08T07:42:18.816Z,1009.68
2017-10-08T07:42:59.333Z,1009.67
2017-10-08T07:43:39.849Z,1009.68
2017-10-08T07:44:20.374Z,1009.7
2017-10-08T07:45:00.889Z,1009.69
2017-10-08T07:45:41.408Z,1009.68
2017-10-08T07:46:21.924Z,1009.7
2017-10-08T07:47:02.462Z,1009.7
2017-10-08T07:47:42.995Z,1009.74
2017-10-08T07:48:23.531Z,1009.68
2017-10-08T07:49:04.047Z,1009.71
2017-10-08T07:49:44.588Z,1009.74
2017-10-08T07:50:25.127Z,1009.73
2017-10-08T07:51:05.649Z,1009.72
2017-10-08T07:51:46.170Z,1009.74
2017-10-08T07:52:26.833Z,1009.77
2017-10-08T07:53:07.240Z,1009.73
2017-10-08T07:53:47.760Z,1009.74
2017-10-08T07:54:28.296Z,1009.75
2017-10-08T07:55:08.816Z,1009.8
2017-10-08T07:55:49.321Z,1009.8
2017-10-08T07:56:29.846Z,1009.86
2017-10-08T07:57:10.353Z,1009.81
2017-10-08T07:57:50.868Z,1009.78
2017-10-08T07:58:31.365Z,1009.79
2017-10-08T07:59:11.881Z,1009.82
2017-10-08T07:59:52.404Z,1009.84
2017-10-08T08:00:32.912Z,1009.84
2017-10-08T08:01:13.419Z,1009.86
2017-10-08T08:01:53.948Z,1009.83
2017-10-08T08:02:34.474Z,1009.86
2017-10-08T08:03:15.014Z,1009.82
2017-10-08T08:03:55.547Z,1009.84
2017-10-08T08:04:36.060Z,1009.84
2017-10-08T08:05:16.586Z,1009.86
2017-10-08T08:05:57.087Z,1009.87
2017-10-08T08:06:37.624Z,1009.87
2017-10-08T08:07:18.153Z,1009.91
2017-10-08T08:07:58.664Z,1009.92
2017-10-08T08:08:39.194Z,1009.92
2017-10-08T08:09:19.724Z,1009.9
2017-10-08T08:10:00.264Z,1009.93
2017-10-08T08:10:40.786Z,1009.92
2017-10-08T08:11:21.318Z,1009.87
2017-10-08T08:12:01.829Z,1009.91
2017-10-08T08:12:42.348Z,1009.93